createdAt,value
2017-10-25T10:30:08.955Z,13.20
2017-10-25T10:31:08.957Z,9.70
2017-10-25T10:33:01.833Z,6.80
2017-10-25T10:34:01.828Z,7.10
2017-10-25T10:35:54.734Z,6.50
2017-10-25T10:36:54.712Z,6.70
2017-10-25T10:37:54.707Z,6.10
2017-10-25T10:38:54.708Z,6.30
2017-10-25T10:39:54.709Z,6.30
2017-10-25T10:40:54.707Z,6.80
2017-10-25T10:41:54.705Z,7.20
2017-10-25T10:42:54.705Z,5.60
2017-10-25T10:43:54.703Z,6.20
2017-10-25T10:44:55.206Z,5.10
2017-10-25T10:45:54.707Z,5.90
2017-10-25T10:46:54.701Z,5.80
2017-10-25T10:47:54.702Z,6.80
2017-10-25T10:48:54.697Z,6.10
2017-10-25T10:49:54.704Z,5.50
2017-10-25T10:50:54.697Z,5.00
2017-10-25T10:51:54.699Z,5.50
2017-10-25T10:52:54.702Z,5.50
2017-10-25T10:53:54.695Z,5.20
2017-10-25T10:54:54.694Z,5.40
2017-10-25T10:55:54.694Z,5.50
2017-10-25T10:56:54.687Z,5.10
2017-10-25T10:57:54.695Z,5.50
2017-10-25T10:58:54.692Z,5.00
2017-10-25T10:59:54.692Z,5.30
2017-10-25T11:00:54.693Z,5.10
2017-10-25T11:01:54.691Z,5.30
2017-10-25T11:02:54.687Z,5.80
2017-10-25T11:03:54.689Z,5.40
2017-10-25T11:04:54.689Z,6.40
2017-10-25T11:05:54.687Z,5.90
2017-10-25T11:06:54.688Z,5.00
2017-10-25T11:07:54.684Z,5.70
2017-10-25T11:08:54.687Z,6.90
2017-10-25T11:09:54.685Z,5.70
2017-10-25T11:10:54.682Z,6.30
2017-10-25T11:11:54.681Z,6.00
2017-10-25T11:12:54.681Z,5.80
2017-10-25T11:13:54.690Z,6.70
2017-10-25T11:14:54.681Z,6.90
2017-10-25T11:15:54.685Z,6.00
2017-10-25T11:16:54.678Z,6.30
2017-10-25T11:17:54.678Z,5.80
2017-10-25T11:18:54.682Z,5.20
2017-10-25T11:19:54.678Z,4.90
2017-10-25T11:20:54.683Z,5.20
2017-10-25T11:21:54.677Z,5.60
2017-10-25T11:22:54.677Z,5.40
2017-10-25T11:23:54.677Z,5.50
2017-10-25T11:24:54.727Z,5.20
2017-10-25T11:25:54.675Z,5.40
2017-10-25T11:26:54.674Z,4.90
2017-10-25T11:27:54.680Z,6.00
2017-10-25T11:28:54.678Z,23.80
2017-10-25T11:29:54.705Z,30.40
2017-10-25T11:30:54.680Z,18.70
2017-10-25T11:31:54.682Z,12.20
2017-10-25T11:32:54.680Z,9.10
2017-10-25T11:33:54.696Z,6.60
2017-10-25T11:34:54.682Z,6.20
2017-10-25T11:35:54.692Z,4.70
2017-10-25T11:36:54.683Z,4.60
2017-10-25T11:37:54.679Z,6.80
2017-10-25T11:38:54.685Z,6.40
2017-10-25T11:39:54.687Z,13.10
2017-10-25T11:40:54.688Z,8.50
2017-10-25T11:41:54.688Z,6.00
2017-10-25T11:42:54.690Z,7.30
2017-10-25T11:43:54.692Z,5.60
2017-10-25T11:44:54.692Z,5.40
2017-10-25T11:45:54.692Z,5.30
2017-10-25T11:46:54.695Z,4.90
2017-10-25T11:47:54.701Z,4.90
2017-10-25T11:48:54.696Z,4.40
2017-10-25T11:49:54.694Z,4.90
2017-10-25T11:50:54.698Z,6.10
2017-10-25T11:51:54.700Z,6.80
2017-10-25T11:52:54.704Z,6.70
2017-10-25T11:53:54.707Z,9.50
2017-10-25T11:54:54.702Z,8.00
2017-10-25T11:55:54.695Z,6.50
2017-10-25T11:56:54.712Z,6.60
2017-10-25T11:57:54.706Z,13.50
2017-10-25T11:58:54.706Z,24.30
2017-10-25T11:59:54.707Z,13.30
2017-10-25T12:00:54.706Z,6.80
2017-10-25T12:01:54.713Z,5.00
2017-10-25T12:02:54.709Z,5.20
2017-10-25T12:03:54.727Z,5.10
2017-10-25T12:04:54.712Z,5.10
2017-10-25T12:05:54.710Z,5.60
2017-10-25T12:06:54.715Z,5.10
2017-10-25T12:07:54.714Z,5.00
2017-10-25T12:08:54.720Z,5.40
2017-10-25T12:09:54.718Z,4.90
2017-10-25T12:10:54.714Z,6.20
2017-10-25T12:11:54.716Z,5.60
2017-10-25T12:12:54.719Z,4.70
2017-10-25T12:13:54.716Z,5.10
2017-10-25T12:14:54.718Z,5.30
2017-10-25T12:15:54.718Z,4.90
2017-10-25T12:16:54.718Z,5.00
2017-10-25T12:17:54.719Z,5.50
2017-10-25T12:18:54.721Z,4.80
2017-10-25T12:19:54.719Z,6.50
2017-10-25T12:20:54.723Z,18.90
2017-10-25T12:21:54.730Z,15.50
2017-10-25T12:22:54.720Z,6.80
2017-10-25T12:23:54.735Z,6.50
2017-10-25T12:24:54.720Z,5.20
2017-10-25T12:25:54.720Z,6.30
2017-10-25T12:26:54.722Z,5.80
2017-10-25T12:27:54.725Z,4.30
2017-10-25T12:28:54.723Z,4.60
2017-10-25T12:29:54.722Z,4.20
2017-10-25T12:30:54.722Z,5.20
2017-10-25T12:31:54.723Z,7.50
2017-10-25T12:32:54.726Z,8.00
2017-10-25T12:33:54.724Z,4.50
2017-10-25T12:34:54.725Z,2.90
2017-10-25T12:35:54.724Z,2.90
2017-10-25T12:36:54.724Z,2.80
2017-10-25T12:37:54.726Z,5.00
2017-10-25T12:38:54.726Z,4.00
2017-10-25T12:39:54.727Z,2.80
2017-10-25T12:40:54.729Z,3.30
2017-10-25T12:41:54.728Z,2.40
2017-10-25T12:42:54.729Z,2.90
2017-10-25T12:43:54.732Z,3.00
2017-10-25T12:44:54.732Z,6.90
2017-10-25T12:45:54.735Z,26.00
2017-10-25T12:46:54.732Z,19.10
2017-10-25T12:47:54.734Z,6.80
2017-10-25T12:48:54.735Z,3.60
2017-10-25T12:49:54.733Z,12.30
2017-10-25T12:50:54.735Z,3.80
2017-10-25T12:51:54.736Z,2.20
2017-10-25T12:52:54.738Z,3.40
2017-10-25T12:53:54.736Z,2.90
2017-10-25T12:54:54.738Z,2.20
2017-10-25T12:55:54.740Z,2.90
2017-10-25T12:56:54.757Z,2.50
2017-10-25T12:57:54.742Z,2.90
2017-10-25T12:58:54.740Z,2.90
2017-10-25T12:59:54.749Z,5.50
2017-10-25T13:00:54.747Z,13.40
2017-10-25T13:01:54.747Z,7.70
2017-10-25T13:02:54.748Z,3.70
2017-10-25T13:03:54.749Z,2.80
2017-10-25T13:04:55.267Z,3.60
2017-10-25T13:05:54.752Z,3.30
2017-10-25T13:06:54.750Z,2.30
2017-10-25T13:07:54.752Z,2.40
2017-10-25T13:08:54.755Z,2.30
2017-10-25T13:09:54.752Z,2.20
2017-10-25T13:10:54.757Z,3.00
2017-10-25T13:11:54.757Z,2.20
2017-10-25T13:12:54.758Z,2.50
2017-10-25T13:13:54.757Z,2.40
2017-10-25T13:14:54.761Z,3.60
2017-10-25T13:15:54.767Z,2.20
2017-10-25T13:16:54.783Z,2.50
2017-10-25T13:17:54.760Z,2.30
2017-10-25T13:18:54.765Z,2.40
2017-10-25T13:19:54.772Z,2.30
2017-10-25T13:20:54.771Z,2.10
2017-10-25T13:21:54.768Z,2.50
2017-10-25T13:22:54.771Z,2.60
2017-10-25T13:23:54.773Z,2.50
2017-10-25T13:24:54.774Z,2.70
2017-10-25T13:25:54.773Z,2.50
2017-10-25T13:26:54.782Z,3.00
2017-10-25T13:27:54.777Z,2.20
2017-10-25T13:28:54.777Z,2.30
2017-10-25T13:29:54.777Z,2.50
2017-10-25T13:30:54.779Z,2.40
2017-10-25T13:31:54.788Z,2.80
2017-10-25T13:32:54.783Z,2.50
2017-10-25T13:33:54.784Z,3.10
2017-10-25T13:34:54.784Z,3.20
2017-10-25T13:35:54.786Z,8.50
2017-10-25T13:36:54.785Z,14.70
2017-10-25T13:37:54.787Z,5.00
2017-10-25T13:38:54.788Z,3.40
2017-10-25T13:39:54.790Z,3.00
2017-10-25T13:40:54.788Z,6.10
2017-10-25T13:41:54.791Z,4.70
2017-10-25T13:42:54.792Z,2.80
2017-10-25T13:43:54.794Z,2.50
2017-10-25T13:44:54.796Z,3.40
2017-10-25T13:45:54.802Z,3.40
2017-10-25T13:46:54.798Z,6.10
2017-10-25T13:47:54.797Z,8.10
2017-10-25T13:48:54.800Z,2.90
2017-10-25T13:49:54.800Z,3.00
2017-10-25T13:50:54.805Z,2.90
2017-10-25T13:51:54.805Z,3.00
2017-10-25T13:52:54.805Z,2.70
2017-10-25T13:53:54.806Z,2.50
2017-10-25T13:54:54.805Z,2.70
2017-10-25T13:55:54.806Z,3.10
2017-10-25T13:56:54.809Z,6.00
2017-10-25T13:57:54.809Z,10.20
2017-10-25T13:58:54.809Z,5.90
2017-10-25T13:59:54.812Z,2.60
2017-10-25T14:00:54.813Z,3.40
2017-10-25T14:01:54.814Z,2.60
2017-10-25T14:02:54.831Z,2.60
2017-10-25T14:03:54.821Z,2.50
2017-10-25T14:04:54.819Z,4.00
2017-10-25T14:05:54.817Z,3.00
2017-10-25T14:06:54.819Z,2.80
2017-10-25T14:07:54.832Z,3.00
2017-10-25T14:08:54.828Z,2.90
2017-10-25T14:09:54.821Z,2.70
2017-10-25T14:10:54.825Z,2.60
2017-10-25T14:11:54.826Z,3.30
2017-10-25T14:12:54.825Z,2.70
2017-10-25T14:13:54.825Z,2.70
2017-10-25T14:14:54.843Z,2.70
2017-10-25T14:15:54.830Z,3.40
2017-10-25T14:16:54.830Z,3.00
2017-10-25T14:17:54.828Z,2.70
2017-10-25T14:18:54.831Z,2.70
2017-10-25T14:19:54.856Z,3.00
2017-10-25T14:20:54.835Z,3.70
2017-10-25T14:21:54.837Z,3.00
2017-10-25T14:22:54.835Z,3.40
2017-10-25T14:23:54.839Z,2.80
2017-10-25T14:24:54.840Z,3.50
2017-10-25T14:25:54.839Z,3.10
2017-10-25T14:26:54.847Z,3.00
2017-10-25T14:27:54.842Z,3.10
2017-10-25T14:28:54.844Z,4.10
2017-10-25T14:29:54.844Z,2.90
2017-10-25T14:30:54.844Z,3.60
2017-10-25T14:31:54.848Z,4.60
2017-10-25T14:32:54.848Z,8.80
2017-10-25T14:33:54.846Z,9.30
2017-10-25T14:34:54.848Z,4.20
2017-10-25T14:35:54.850Z,4.10
2017-10-25T14:36:54.852Z,3.30
2017-10-25T14:37:54.851Z,3.50
2017-10-25T14:38:54.851Z,4.10
2017-10-25T14:39:54.854Z,6.70
2017-10-25T14:40:54.857Z,3.70
2017-10-25T14:41:54.852Z,4.80
2017-10-25T14:42:54.855Z,3.40
2017-10-25T14:43:54.862Z,3.20
2017-10-25T14:44:54.855Z,3.40
2017-10-25T14:45:54.854Z,3.90
2017-10-25T14:46:54.855Z,3.90
2017-10-25T14:47:54.855Z,3.50
2017-10-25T14:48:54.860Z,3.40
2017-10-25T14:49:55.095Z,12.50
2017-10-25T14:50:54.870Z,15.10
2017-10-25T14:51:54.858Z,7.20
2017-10-25T14:52:54.856Z,5.70
2017-10-25T14:53:54.859Z,4.90
2017-10-25T14:54:54.859Z,3.60
2017-10-25T14:55:54.858Z,3.90
2017-10-25T14:56:54.860Z,3.60
2017-10-25T14:57:54.855Z,4.20
2017-10-25T14:58:54.857Z,3.90
2017-10-25T14:59:54.861Z,4.50
2017-10-25T15:00:54.862Z,4.40
2017-10-25T15:01:54.867Z,3.80
2017-10-25T15:02:54.865Z,3.70
2017-10-25T15:03:54.862Z,4.40
2017-10-25T15:04:54.860Z,3.80
2017-10-25T15:05:54.863Z,4.00
2017-10-25T15:06:54.867Z,3.90
2017-10-25T15:07:54.862Z,4.40
2017-10-25T15:08:54.876Z,4.00
2017-10-25T15:09:54.861Z,6.70
2017-10-25T15:10:54.871Z,24.00
2017-10-25T15:11:54.862Z,12.50
2017-10-25T15:12:54.869Z,13.20
2017-10-25T15:13:54.860Z,13.00
2017-10-25T15:14:54.859Z,4.40
2017-10-25T15:15:54.861Z,4.20
2017-10-25T15:16:54.860Z,5.00
2017-10-25T15:17:54.868Z,4.80
2017-10-25T15:18:54.862Z,6.00
2017-10-25T15:19:54.861Z,4.30
2017-10-25T15:20:54.865Z,5.20
2017-10-25T15:21:54.863Z,4.80
2017-10-25T15:22:54.861Z,4.40
2017-10-25T15:23:54.861Z,4.50
2017-10-25T15:24:54.864Z,4.40
2017-10-25T15:25:54.851Z,4.70
2017-10-25T15:26:54.863Z,4.40
2017-10-25T15:27:54.860Z,5.70
2017-10-25T15:28:54.860Z,4.70
2017-10-25T15:29:54.869Z,4.50
2017-10-25T15:30:54.866Z,4.70
2017-10-25T15:31:54.855Z,5.00
2017-10-25T15:32:54.854Z,4.80
2017-10-25T15:33:54.863Z,5.20
2017-10-25T15:34:54.857Z,5.00
2017-10-25T15:35:54.864Z,4.50
2017-10-25T15:36:54.862Z,4.50
2017-10-25T15:37:54.887Z,5.30
2017-10-25T15:38:54.845Z,5.10
2017-10-25T15:39:54.860Z,5.30
2017-10-25T15:40:54.872Z,4.70
2017-10-25T15:41:54.859Z,5.10
2017-10-25T15:42:54.856Z,5.00
2017-10-25T15:43:54.854Z,5.00
2017-10-25T15:44:54.845Z,4.60
2017-10-25T15:45:54.865Z,5.30
2017-10-25T15:46:54.840Z,4.90
2017-10-25T15:47:54.851Z,5.50
2017-10-25T15:48:54.853Z,5.00
2017-10-25T15:49:54.842Z,4.80
2017-10-25T15:50:54.846Z,5.60
2017-10-25T15:51:54.842Z,5.40
2017-10-25T15:52:54.850Z,5.40
2017-10-25T15:53:54.840Z,5.80
2017-10-25T15:54:54.842Z,5.30
2017-10-25T15:55:54.841Z,5.30
2017-10-25T15:56:54.842Z,5.70
2017-10-25T15:57:54.835Z,5.70
2017-10-25T15:58:54.836Z,6.00
2017-10-25T15:59:54.836Z,6.10
2017-10-25T16:00:54.838Z,6.60
2017-10-25T16:01:54.836Z,6.30
2017-10-25T16:02:54.833Z,5.70
2017-10-25T16:03:54.834Z,6.50
2017-10-25T16:04:54.835Z,7.00
2017-10-25T16:05:54.828Z,6.40
2017-10-25T16:06:54.828Z,6.40
2017-10-25T16:07:54.827Z,6.50
2017-10-25T16:08:54.831Z,6.80
2017-10-25T16:09:54.820Z,6.60
2017-10-25T16:10:54.818Z,7.00
2017-10-25T16:11:54.821Z,6.90
2017-10-25T16:12:54.817Z,6.10
2017-10-25T16:13:54.820Z,6.50
2017-10-25T16:14:54.813Z,6.80
2017-10-25T16:15:54.817Z,6.60
2017-10-25T16:16:54.816Z,6.60
2017-10-25T16:17:54.812Z,6.50
2017-10-25T16:18:54.811Z,6.50
2017-10-25T16:19:54.821Z,7.10
2017-10-25T16:20:54.805Z,6.60
2017-10-25T16:21:54.805Z,7.60
2017-10-25T16:22:54.808Z,7.60
2017-10-25T16:23:54.803Z,8.00
2017-10-25T16:24:54.801Z,8.40
2017-10-25T16:25:54.798Z,8.60
2017-10-25T16:26:54.799Z,8.20
2017-10-25T16:27:54.796Z,8.30
2017-10-25T16:28:54.800Z,8.30
2017-10-25T16:29:54.801Z,7.90
2017-10-25T16:30:54.791Z,8.20
2017-10-25T16:31:54.789Z,9.70
2017-10-25T16:32:54.803Z,9.60
2017-10-25T16:33:54.782Z,9.90
2017-10-25T16:34:54.789Z,8.70
2017-10-25T16:35:54.784Z,8.20
2017-10-25T16:36:54.780Z,7.90
2017-10-25T16:37:54.778Z,13.30
2017-10-25T16:38:54.777Z,20.50
2017-10-25T16:39:54.774Z,14.30
2017-10-25T16:40:54.773Z,11.80
2017-10-25T16:41:54.771Z,9.50
2017-10-25T16:42:54.770Z,9.70
2017-10-25T16:43:54.768Z,9.40
2017-10-25T16:44:54.770Z,9.60
2017-10-25T16:45:54.764Z,8.60
2017-10-25T16:46:54.767Z,8.20
2017-10-25T16:47:54.759Z,9.10
2017-10-25T16:48:54.763Z,9.10
2017-10-25T16:49:54.766Z,9.80
2017-10-25T16:50:54.756Z,9.10
2017-10-25T16:51:54.753Z,8.60
2017-10-25T16:52:54.796Z,9.90
2017-10-25T16:53:54.747Z,9.20
2017-10-25T16:54:54.751Z,10.00
2017-10-25T16:55:54.744Z,9.80
2017-10-25T16:56:54.742Z,13.30
2017-10-25T16:57:54.744Z,8.30
2017-10-25T16:58:54.736Z,9.10
2017-10-25T16:59:54.736Z,8.40
2017-10-25T17:00:54.733Z,8.00
2017-10-25T17:01:54.730Z,8.00
2017-10-25T17:02:54.726Z,7.50
2017-10-25T17:03:54.728Z,8.00
2017-10-25T17:04:54.725Z,7.60
2017-10-25T17:05:54.719Z,8.00
2017-10-25T17:06:54.724Z,8.80
2017-10-25T17:07:54.721Z,7.00
2017-10-25T17:08:54.715Z,7.50
2017-10-25T17:09:54.711Z,7.00
2017-10-25T17:10:54.713Z,6.70
2017-10-25T17:11:54.711Z,6.80
2017-10-25T17:12:54.707Z,6.90
2017-10-25T17:13:54.706Z,7.30
2017-10-25T17:14:54.704Z,6.90
2017-10-25T17:15:54.701Z,6.90
2017-10-25T17:16:54.698Z,6.60
2017-10-25T17:17:54.695Z,8.10
2017-10-25T17:18:54.694Z,6.90
2017-10-25T17:19:54.690Z,6.80
2017-10-25T17:20:54.693Z,6.70
2017-10-25T17:21:54.695Z,6.30
2017-10-25T17:23:54.682Z,8.80
2017-10-25T17:24:54.680Z,8.00
2017-10-25T17:25:54.677Z,6.80
2017-10-25T17:26:54.676Z,6.30
2017-10-25T17:27:54.671Z,9.20
2017-10-25T17:28:54.678Z,7.40
2017-10-25T17:30:15.675Z,7.90
2017-10-25T17:30:54.665Z,6.20
2017-10-25T17:31:54.661Z,6.50
2017-10-25T17:33:54.663Z,7.10
2017-10-25T17:34:54.667Z,6.80
2017-10-25T17:36:15.671Z,6.80
2017-10-25T17:36:54.660Z,6.30
2017-10-25T17:37:54.678Z,5.90
2017-10-25T17:39:15.663Z,5.80
2017-10-25T17:39:54.764Z,5.60
2017-10-25T17:41:15.654Z,6.10
2017-10-25T17:41:54.645Z,6.60
2017-10-25T17:42:54.642Z,6.90
2017-10-25T17:44:15.648Z,6.10
2017-10-25T17:44:54.640Z,5.80
2017-10-25T17:46:15.640Z,7.20
2017-10-25T17:46:54.636Z,6.50
2017-10-25T17:47:54.629Z,6.40
2017-10-25T17:49:15.634Z,6.40
2017-10-25T17:49:54.621Z,7.30
2017-10-25T17:51:15.628Z,6.10
2017-10-25T17:51:54.614Z,6.60
2017-10-25T17:52:54.622Z,7.80
2017-10-25T17:54:15.617Z,5.90
2017-10-25T17:54:54.610Z,5.60
2017-10-25T17:56:15.620Z,5.80
2017-10-25T17:56:54.612Z,6.30
2017-10-25T17:57:54.611Z,6.50
2017-10-25T17:59:15.613Z,6.60
2017-10-25T17:59:54.604Z,6.40
2017-10-25T18:01:15.622Z,5.90
2017-10-25T18:01:54.590Z,6.30
2017-10-25T18:02:54.605Z,6.20
2017-10-25T18:04:15.593Z,6.20
2017-10-25T18:04:54.588Z,5.90
2017-10-25T18:06:15.589Z,5.50
2017-10-25T18:06:54.578Z,5.40
2017-10-25T18:07:54.572Z,5.20
2017-10-25T18:09:15.586Z,6.30
2017-10-25T18:09:54.569Z,6.40
2017-10-25T18:11:15.576Z,6.30
2017-10-25T18:11:54.605Z,6.70
2017-10-25T18:12:54.556Z,7.40
2017-10-25T18:14:15.571Z,8.30
2017-10-25T18:14:54.566Z,7.90
2017-10-25T18:16:15.558Z,8.00
2017-10-25T18:16:54.555Z,7.50
2017-10-25T18:17:54.550Z,7.80
2017-10-25T18:19:15.731Z,6.80
2017-10-25T18:19:54.675Z,6.90
2017-10-25T18:21:15.546Z,6.80
2017-10-25T18:21:54.551Z,6.60
2017-10-25T18:22:54.530Z,6.20
2017-10-25T18:24:15.539Z,6.80
2017-10-25T18:24:54.541Z,6.50
2017-10-25T18:26:15.527Z,7.10
2017-10-25T18:26:54.526Z,7.10
2017-10-25T18:27:54.518Z,8.00
2017-10-25T18:29:15.528Z,6.40
2017-10-25T18:29:54.516Z,6.60
2017-10-25T18:31:15.514Z,6.20
2017-10-25T18:31:54.503Z,6.40
2017-10-25T18:32:54.504Z,6.40
2017-10-25T18:34:15.505Z,6.90
2017-10-25T18:34:54.497Z,5.90
2017-10-25T18:36:15.504Z,6.20
2017-10-25T18:36:54.484Z,7.10
2017-10-25T18:37:54.489Z,6.20
2017-10-25T18:39:15.493Z,6.80
2017-10-25T18:39:54.549Z,6.30
2017-10-25T18:41:16.950Z,8.40
2017-10-25T18:41:54.477Z,5.40
2017-10-25T18:42:54.472Z,5.60
2017-10-25T18:44:15.475Z,5.50
2017-10-25T18:44:54.472Z,5.50
2017-10-25T18:46:15.469Z,5.40
2017-10-25T18:46:54.457Z,5.40
2017-10-25T18:47:54.464Z,5.70
2017-10-25T18:49:15.460Z,5.40
2017-10-25T18:49:54.646Z,6.40
2017-10-25T18:51:15.452Z,6.30
2017-10-25T18:51:54.455Z,6.00
2017-10-25T18:52:54.449Z,5.90
2017-10-25T18:54:15.445Z,6.00
2017-10-25T18:54:54.434Z,6.20
2017-10-25T18:56:15.440Z,6.30
2017-10-25T18:56:54.437Z,6.40
2017-10-25T18:57:54.424Z,6.50
2017-10-25T18:59:15.427Z,6.30
2017-10-25T18:59:54.416Z,7.00
2017-10-25T19:01:15.425Z,7.20
2017-10-25T19:01:54.415Z,7.70
2017-10-25T19:02:54.407Z,7.20
2017-10-25T19:04:15.418Z,6.50
2017-10-25T19:04:54.403Z,6.30
2017-10-25T19:06:15.411Z,5.90
2017-10-25T19:06:54.401Z,6.40
2017-10-25T19:07:54.401Z,5.70
2017-10-25T19:09:15.397Z,6.00
2017-10-25T19:09:54.384Z,6.10
2017-10-25T19:11:15.390Z,6.50
2017-10-25T19:11:54.385Z,5.90
2017-10-25T19:12:54.379Z,5.50
2017-10-25T19:14:15.376Z,5.80
2017-10-25T19:14:54.371Z,6.20
2017-10-25T19:16:15.378Z,9.20
2017-10-25T19:16:54.369Z,7.90
2017-10-25T19:17:54.360Z,7.10
2017-10-25T19:19:15.369Z,6.80
2017-10-25T19:19:54.354Z,7.10
2017-10-25T19:21:15.361Z,6.00
2017-10-25T19:21:54.347Z,6.30
2017-10-25T19:22:54.343Z,6.20
2017-10-25T19:24:15.351Z,5.40
2017-10-25T19:24:54.339Z,6.30
2017-10-25T19:26:15.341Z,5.70
2017-10-25T19:26:54.330Z,5.20
2017-10-25T19:27:54.332Z,6.30
2017-10-25T19:29:15.351Z,6.20
2017-10-25T19:29:54.320Z,5.20
2017-10-25T19:31:15.327Z,6.30
2017-10-25T19:31:54.316Z,5.40
2017-10-25T19:32:54.313Z,5.40
2017-10-25T19:34:15.312Z,5.20
2017-10-25T19:34:54.307Z,5.20
2017-10-25T19:36:15.310Z,6.20
2017-10-25T19:36:54.306Z,4.70
2017-10-25T19:37:54.291Z,4.90
2017-10-25T19:39:15.300Z,5.50
2017-10-25T19:39:54.289Z,5.20
2017-10-25T19:41:15.292Z,5.30
2017-10-25T19:41:54.285Z,7.20
2017-10-25T19:42:54.278Z,4.80
2017-10-25T19:44:15.964Z,5.80
2017-10-25T19:44:54.299Z,5.50
2017-10-25T19:46:15.275Z,4.90
2017-10-25T19:46:54.270Z,5.30
2017-10-25T19:47:54.263Z,5.30
2017-10-25T19:49:15.278Z,5.40
2017-10-25T19:49:54.255Z,5.00
2017-10-25T19:51:15.265Z,6.30
2017-10-25T19:51:54.250Z,6.30
2017-10-25T19:52:54.248Z,5.40
2017-10-25T19:54:15.259Z,5.30
2017-10-25T19:54:54.252Z,5.20
2017-10-25T19:56:15.243Z,9.30
2017-10-25T19:56:54.235Z,6.40
2017-10-25T19:57:54.227Z,7.10
2017-10-25T19:59:15.233Z,7.10
2017-10-25T19:59:54.223Z,6.90
2017-10-25T20:01:15.228Z,6.90
2017-10-25T20:01:54.214Z,6.20
2017-10-25T20:02:54.222Z,7.50
2017-10-25T20:04:15.219Z,8.40
2017-10-25T20:04:54.202Z,7.10
2017-10-25T20:06:15.210Z,5.90
2017-10-25T20:06:54.198Z,6.70
2017-10-25T20:07:54.192Z,8.20
2017-10-25T20:09:15.197Z,7.60
2017-10-25T20:09:54.187Z,9.00
2017-10-25T20:11:15.192Z,10.20
2017-10-25T20:11:54.180Z,7.00
2017-10-25T20:12:54.179Z,8.40
2017-10-25T20:14:15.180Z,6.80
2017-10-25T20:14:54.168Z,5.40
2017-10-25T20:16:15.177Z,6.70
2017-10-25T20:16:54.168Z,7.20
2017-10-25T20:17:54.160Z,6.10
2017-10-25T20:19:15.166Z,7.10
2017-10-25T20:19:54.162Z,6.20
2017-10-25T20:21:15.156Z,6.90
2017-10-25T20:21:54.144Z,6.70
2017-10-25T20:22:54.146Z,7.00
2017-10-25T20:24:15.145Z,6.10
2017-10-25T20:24:54.133Z,7.80
2017-10-25T20:26:15.142Z,7.70
2017-10-25T20:26:54.136Z,9.80
2017-10-25T20:27:54.124Z,9.10
2017-10-25T20:29:15.131Z,7.90
2017-10-25T20:29:54.115Z,10.60
2017-10-25T20:31:15.121Z,9.00
2017-10-25T20:31:54.111Z,9.00
2017-10-25T20:32:54.110Z,8.20
2017-10-25T20:34:15.108Z,8.40
2017-10-25T20:34:54.097Z,7.60
2017-10-25T20:36:15.102Z,10.00
2017-10-25T20:36:54.105Z,8.10
2017-10-25T20:37:54.085Z,8.10
2017-10-25T20:39:15.092Z,8.00
2017-10-25T20:39:54.081Z,8.30
2017-10-25T20:41:15.085Z,8.60
2017-10-25T20:41:54.074Z,12.10
2017-10-25T20:42:54.067Z,9.40
2017-10-25T20:44:15.073Z,6.90
2017-10-25T20:44:54.058Z,9.40
2017-10-25T20:46:15.065Z,7.90
2017-10-25T20:46:54.054Z,8.70
2017-10-25T20:47:54.048Z,11.20
2017-10-25T20:49:15.055Z,9.00
2017-10-25T20:49:54.040Z,10.90
2017-10-25T20:51:15.069Z,10.30
2017-10-25T20:51:54.037Z,8.60
2017-10-25T20:52:54.033Z,12.50
2017-10-25T20:54:15.035Z,11.20
2017-10-25T20:54:54.020Z,11.80
2017-10-25T20:56:15.025Z,14.10
2017-10-25T20:56:54.013Z,15.00
2017-10-25T20:57:54.010Z,17.50
2017-10-25T20:59:15.014Z,17.70
2017-10-25T20:59:54.008Z,18.60
2017-10-25T21:01:15.012Z,17.40
2017-10-25T21:01:53.992Z,16.90
2017-10-25T21:02:54.016Z,13.80
2017-10-25T21:04:14.997Z,18.00
2017-10-25T21:04:53.983Z,15.00
2017-10-25T21:06:14.983Z,18.80
2017-10-25T21:06:53.979Z,14.20
2017-10-25T21:07:54.059Z,16.40
2017-10-25T21:09:14.974Z,13.90
2017-10-25T21:09:53.960Z,13.60
2017-10-25T21:11:14.966Z,13.40
2017-10-25T21:11:53.966Z,11.60
2017-10-25T21:12:53.985Z,12.20
2017-10-25T21:14:14.961Z,10.30
2017-10-25T21:14:53.944Z,14.60
2017-10-25T21:16:14.950Z,14.10
2017-10-25T21:16:53.938Z,12.90
2017-10-25T21:17:54.017Z,13.30
2017-10-25T21:19:14.932Z,13.30
2017-10-25T21:19:53.930Z,12.90
2017-10-25T21:21:14.925Z,12.80
2017-10-25T21:21:53.915Z,11.70
2017-10-25T21:22:54.010Z,10.90
2017-10-25T21:24:14.920Z,11.30
2017-10-25T21:24:53.909Z,12.80
2017-10-25T21:26:14.899Z,11.80
2017-10-25T21:26:53.903Z,11.80
2017-10-25T21:27:53.968Z,11.90
2017-10-25T21:29:14.892Z,12.10
2017-10-25T21:29:53.883Z,12.30
2017-10-25T21:31:14.883Z,12.20
2017-10-25T21:31:53.878Z,12.00
2017-10-25T21:32:54.007Z,12.20
2017-10-25T21:34:14.873Z,12.60
2017-10-25T21:34:53.863Z,11.10
2017-10-25T21:36:14.860Z,11.50
2017-10-25T21:36:53.857Z,10.40
2017-10-25T21:37:53.904Z,10.40
2017-10-25T21:39:14.871Z,10.20
2017-10-25T21:39:53.854Z,10.20
2017-10-25T21:41:14.843Z,10.00
2017-10-25T21:41:53.836Z,10.00
2017-10-25T21:42:53.879Z,9.90
2017-10-25T21:44:14.836Z,10.30
2017-10-25T21:44:53.824Z,11.60
2017-10-25T21:46:14.826Z,15.10
2017-10-25T21:46:53.815Z,21.40
2017-10-25T21:47:53.838Z,28.10
2017-10-25T21:49:14.813Z,33.20
2017-10-25T21:49:53.804Z,29.10
2017-10-25T21:51:14.806Z,27.20
2017-10-25T21:51:53.787Z,26.20
2017-10-25T21:52:53.853Z,24.10
2017-10-25T21:54:14.792Z,27.20
2017-10-25T21:54:53.782Z,25.60
2017-10-25T21:56:14.777Z,18.50
2017-10-25T21:56:53.839Z,20.50
2017-10-25T21:57:53.854Z,19.70
2017-10-25T21:59:14.767Z,17.50
2017-10-25T21:59:53.755Z,19.10
2017-10-25T22:01:14.766Z,15.70
2017-10-25T22:01:53.747Z,15.70
2017-10-25T22:02:53.829Z,15.80
2017-10-25T22:04:14.748Z,14.00
2017-10-25T22:04:53.745Z,13.40
2017-10-25T22:06:14.741Z,10.90
2017-10-25T22:06:53.724Z,12.90
2017-10-25T22:07:53.749Z,13.80
2017-10-25T22:09:14.729Z,19.50
2017-10-25T22:09:53.727Z,20.90
2017-10-25T22:11:14.715Z,23.50
2017-10-25T22:11:53.704Z,21.70
2017-10-25T22:12:53.715Z,16.50
2017-10-25T22:14:14.706Z,12.70
2017-10-25T22:14:53.696Z,12.60
2017-10-25T22:16:14.701Z,9.90
2017-10-25T22:16:53.684Z,8.60
2017-10-25T22:17:53.712Z,8.90
2017-10-25T22:19:14.683Z,8.70
2017-10-25T22:19:53.670Z,9.40
2017-10-25T22:21:14.676Z,8.60
2017-10-25T22:21:53.663Z,8.30
2017-10-25T22:22:53.710Z,8.90
2017-10-25T22:24:14.668Z,13.10
2017-10-25T22:24:53.649Z,13.80
2017-10-25T22:26:14.655Z,16.60
2017-10-25T22:26:53.636Z,18.10
2017-10-25T22:27:53.676Z,19.00
2017-10-25T22:29:14.643Z,21.20
2017-10-25T22:29:53.626Z,21.60
2017-10-25T22:31:55.070Z,19.20
2017-10-25T22:32:53.980Z,18.10
2017-10-25T22:34:14.619Z,13.90
2017-10-25T22:34:53.602Z,14.20
2017-10-25T22:36:14.614Z,10.60
2017-10-25T22:36:53.596Z,12.10
2017-10-25T22:37:55.136Z,9.90
2017-10-25T22:39:14.595Z,8.40
2017-10-25T22:39:53.585Z,8.70
2017-10-25T22:41:14.585Z,9.30
2017-10-25T22:41:53.578Z,8.60
2017-10-25T22:42:53.591Z,8.40
2017-10-25T22:44:14.576Z,9.70
2017-10-25T22:44:53.573Z,8.90
2017-10-25T22:46:14.565Z,9.80
2017-10-25T22:46:53.554Z,9.90
2017-10-25T22:47:53.548Z,9.80
2017-10-25T22:49:14.553Z,10.00
2017-10-25T22:49:53.543Z,11.10
2017-10-25T22:51:14.542Z,13.50
2017-10-25T22:51:53.540Z,16.10
2017-10-25T22:52:53.533Z,12.60
2017-10-25T22:54:14.528Z,15.60
2017-10-25T22:54:53.526Z,11.20
2017-10-25T22:56:14.524Z,12.70
2017-10-25T22:56:53.513Z,11.50
2017-10-25T22:57:53.583Z,10.40
2017-10-25T22:59:14.514Z,11.50
2017-10-25T22:59:53.499Z,10.70
2017-10-25T23:01:14.511Z,10.00
2017-10-25T23:01:53.489Z,11.10
2017-10-25T23:02:53.592Z,10.40
2017-10-25T23:04:14.501Z,14.30
2017-10-25T23:04:53.472Z,11.60
2017-10-25T23:06:14.487Z,10.40
2017-10-25T23:06:53.467Z,10.20
2017-10-25T23:07:53.571Z,9.10
2017-10-25T23:09:14.478Z,11.60
2017-10-25T23:09:53.458Z,9.60
2017-10-25T23:11:14.459Z,9.20
2017-10-25T23:11:53.449Z,8.40
2017-10-25T23:12:53.504Z,9.70
2017-10-25T23:14:14.447Z,8.90
2017-10-25T23:14:53.430Z,9.90
2017-10-25T23:16:14.433Z,10.10
2017-10-25T23:16:53.426Z,10.50
2017-10-25T23:17:53.553Z,10.40
2017-10-25T23:19:14.426Z,10.40
2017-10-25T23:19:53.409Z,9.60
2017-10-25T23:21:14.410Z,12.70
2017-10-25T23:21:53.394Z,9.20
2017-10-25T23:22:53.447Z,10.40
2017-10-25T23:24:14.398Z,10.50
2017-10-25T23:24:53.387Z,12.50
2017-10-25T23:26:14.389Z,10.10
2017-10-25T23:26:53.376Z,9.30
2017-10-25T23:27:53.463Z,10.50
2017-10-25T23:29:14.377Z,10.10
2017-10-25T23:29:53.364Z,11.70
2017-10-25T23:31:14.360Z,13.20
2017-10-25T23:31:53.353Z,10.00
2017-10-25T23:32:53.403Z,11.20
2017-10-25T23:34:14.351Z,11.40
2017-10-25T23:34:53.340Z,11.90
2017-10-25T23:36:14.343Z,11.00
2017-10-25T23:36:53.330Z,11.80
2017-10-25T23:37:53.323Z,12.00
2017-10-25T23:39:14.329Z,11.90
2017-10-25T23:39:53.316Z,12.20
2017-10-25T23:41:14.320Z,11.90
2017-10-25T23:41:53.308Z,15.00
2017-10-25T23:42:53.303Z,11.70
2017-10-25T23:44:14.308Z,13.70
2017-10-25T23:44:53.295Z,17.40
2017-10-25T23:46:14.295Z,13.60
2017-10-25T23:46:53.288Z,10.30